Time;durP1;ratioP1;P1;durP2;ratioP2;P2;SDS_P1;SDS_P2;PMS_P1;PMS_P2;Temp;Humidity;BMP_temperature;BMP_pressure;BME280_temperature;BME280_humidity;BME280_pressure;Samples;Min_cycle;Max_cycle;Signal;HPM_P1;HPM_P2
2023/05/22 09:23:24;;;;;;;;;;;24.50;99.90;;;;;;6247394;22;20357;-80
2023/05/22 09:25:52;;;;;;;;;;;24.70;99.90;;;;;;6108610;22;1925331;-77
2023/05/22 09:28:19;;;;;;;;;;;25.00;99.90;;;;;;6192017;23;24132;-77
2023/05/22 09:30:47;;;;;;;;;;;25.20;99.90;;;;;;6192187;23;24102;-77
2023/05/22 09:33:12;;;;;;;;;;;25.20;99.90;;;;;;6192851;23;19908;-77
2023/05/22 09:35:38;;;;;;;;;;;25.40;99.90;;;;;;6193459;23;19908;-77
2023/05/22 09:38:04;;;;;;;;;;;25.40;99.90;;;;;;6193120;23;19915;-79
2023/05/22 09:40:33;;;;;;;;;;;25.40;99.90;;;;;;6191748;23;19916;-78
2023/05/22 09:42:59;;;;;;;;;;;25.40;99.90;;;;;;6193241;22;19909;-81
2023/05/22 09:45:26;;;;;;;;;;;25.60;99.90;;;;;;6192862;23;19915;-80
2023/05/22 09:47:51;;;;;;;;;;;25.70;99.90;;;;;;6192186;23;19918;-79
2023/05/22 09:50:17;;;;;;;;;;;25.90;99.90;;;;;;6193125;23;19991;-80
2023/05/22 09:52:43;;;;;;;;;;;25.70;99.90;;;;;;6191901;22;19942;-83
2023/05/22 09:55:09;;;;;;;;;;;25.40;99.90;;;;;;6194364;23;20324;-81
2023/05/22 09:57:45;;;;;;;;;;;25.60;99.90;;;;;;6193985;23;19908;-84
2023/05/22 10:00:14;;;;;;;;;;;26.00;99.90;;;;;;6191815;23;20365;-84
2023/05/22 10:02:42;;;;;;;;;;;25.90;99.90;;;;;;6191711;22;19919;-84
2023/05/22 10:05:09;;;;;;;;;;;26.10;99.90;;;;;;6191636;23;20029;-81
2023/05/22 10:07:38;;;;;;;;;;;26.20;99.40;;;;;;6192606;23;20339;-81
2023/05/22 10:10:06;;;;;;;;;;;26.50;99.90;;;;;;6193722;23;20469;-81
2023/05/22 10:12:32;;;;;;;;;;;26.70;99.80;;;;;;6190858;22;19909;-80
2023/05/22 10:14:59;;;;;;;;;;;27.10;99.90;;;;;;6186100;23;20029;-82
2023/05/22 10:17:24;;;;;;;;;;;27.20;98.80;;;;;;6186275;23;19966;-80
2023/05/22 10:19:50;;;;;;;;;;;26.70;98.20;;;;;;6187437;23;20400;-81
2023/05/22 10:22:19;;;;;;;;;;;26.70;98.00;;;;;;6186581;22;20519;-82
2023/05/22 10:24:46;;;;;;;;;;;26.80;99.00;;;;;;6185105;23;19920;-78
2023/05/22 10:27:12;;;;;;;;;;;27.20;96.70;;;;;;6185654;23;20022;-81
2023/05/22 10:29:42;;;;;;;;;;;27.30;97.00;;;;;;6185869;23;20320;-83
2023/05/22 10:32:27;;;;;;;;;;;27.40;98.60;;;;;;6185922;22;20611;-81
2023/05/22 10:34:56;;;;;;;;;;;27.40;97.10;;;;;;6185797;22;19915;-82
2023/05/22 10:37:40;;;;;;;;;;;27.20;97.70;;;;;;6185076;23;19908;-83
2023/05/22 10:40:13;;;;;;;;;;;27.00;97.00;;;;;;6186986;23;19913;-81
2023/05/22 10:42:39;;;;;;;;;;;26.90;97.20;;;;;;6185576;22;20034;-82
2023/05/22 10:45:08;;;;;;;;;;;27.10;98.00;;;;;;6184363;23;19912;-79
2023/05/22 10:47:33;;;;;;;;;;;27.30;95.60;;;;;;6184375;23;20751;-81
2023/05/22 10:50:17;;;;;;;;;;;27.10;96.00;;;;;;6186054;23;20033;-81
2023/05/22 10:52:44;;;;;;;;;;;27.10;95.90;;;;;;6184740;22;20087;-80
2023/05/22 10:55:10;;;;;;;;;;;27.50;96.70;;;;;;6184724;23;19909;-81
2023/05/22 10:57:36;;;;;;;;;;;28.00;96.60;;;;;;6185029;23;19909;-80
2023/05/22 11:00:06;;;;;;;;;;;28.30;95.30;;;;;;6186137;23;19919;-80
2023/05/22 11:02:35;;;;;;;;;;;28.20;94.00;;;;;;6186855;22;19917;-81
2023/05/22 11:05:24;;;;;;;;;;;28.30;94.80;;;;;;6188887;23;19915;-81
2023/05/22 11:07:49;;;;;;;;;;;28.30;93.60;;;;;;6187745;23;19912;-80
2023/05/22 11:10:35;;;;;;;;;;;28.60;93.00;;;;;;6189949;23;24060;-82
2023/05/22 11:13:11;;;;;;;;;;;28.80;94.00;;;;;;6208951;22;19909;-82
2023/05/22 11:15:42;;;;;;;;;;;29.10;92.80;;;;;;6193200;23;19908;-81
2023/05/22 11:18:08;;;;;;;;;;;29.40;92.70;;;;;;6193696;23;19912;-80
2023/05/22 11:20:35;;;;;;;;;;;29.10;94.30;;;;;;6194883;23;19920;-80
2023/05/22 11:23:04;;;;;;;;;;;28.90;93.20;;;;;;6189910;22;19915;-80
2023/05/22 11:25:31;;;;;;;;;;;29.10;93.80;;;;;;6215600;23;19913;-80
2023/05/22 11:27:57;;;;;;;;;;;28.70;93.20;;;;;;6219289;22;19958;-80
2023/05/22 11:30:26;;;;;;;;;;;28.60;93.20;;;;;;6220160;23;19961;-80
2023/05/22 11:32:52;;;;;;;;;;;28.70;93.80;;;;;;6325127;22;20269;-80
2023/05/22 11:35:18;;;;;;;;;;;28.90;91.80;;;;;;6221922;22;19914;-83
2023/05/22 11:37:43;;;;;;;;;;;28.80;92.70;;;;;;6220145;22;19928;-81
2023/05/22 11:40:09;;;;;;;;;;;29.00;92.20;;;;;;6218651;23;19927;-81
2023/05/22 11:42:35;;;;;;;;;;;29.00;91.70;;;;;;6324235;22;19912;-81
2023/05/22 11:45:01;;;;;;;;;;;29.30;91.70;;;;;;6324678;22;20247;-81
2023/05/22 11:47:27;;;;;;;;;;;29.60;91.20;;;;;;6218405;23;19972;-81
2023/05/22 11:49:53;;;;;;;;;;;29.90;90.10;;;;;;6219497;23;19919;-82
2023/05/22 11:52:19;;;;;;;;;;;30.40;90.30;;;;;;6220985;22;19915;-82
2023/05/22 11:54:45;;;;;;;;;;;29.90;90.40;;;;;;6220644;22;19915;-82
2023/05/22 11:57:11;;;;;;;;;;;29.60;91.10;;;;;;6220693;22;19904;-82
2023/05/22 11:59:37;;;;;;;;;;;29.20;91.80;;;;;;6326769;22;19942;-82
2023/05/22 12:02:02;;;;;;;;;;;29.40;91.00;;;;;;6327468;22;24058;-82
2023/05/22 12:04:28;;;;;;;;;;;29.40;90.70;;;;;;6327422;22;19914;-82
2023/05/22 12:06:54;;;;;;;;;;;29.40;91.50;;;;;;6194565;22;19907;-82
2023/05/22 12:09:20;;;;;;;;;;;29.50;90.00;;;;;;6221113;23;19919;-82
2023/05/22 12:11:46;;;;;;;;;;;30.00;88.90;;;;;;6326521;22;24046;-82
2023/05/22 12:14:11;;;;;;;;;;;30.30;90.60;;;;;;6327685;22;19908;-82
2023/05/22 12:16:37;;;;;;;;;;;30.70;90.40;;;;;;6327970;22;19915;-82
2023/05/22 12:19:06;;;;;;;;;;;31.10;88.00;;;;;;6221560;22;19916;-82
2023/05/22 12:21:31;;;;;;;;;;;30.50;87.20;;;;;;6193911;22;19912;-82
2023/05/22 12:23:57;;;;;;;;;;;30.20;90.00;;;;;;6326829;22;19912;-82
2023/05/22 12:26:22;;;;;;;;;;;30.30;90.30;;;;;;6327229;22;19912;-82
2023/05/22 12:28:51;;;;;;;;;;;30.90;90.30;;;;;;6328078;22;20008;-82
2023/05/22 12:31:20;;;;;;;;;;;30.90;88.00;;;;;;6221576;22;20362;-82
2023/05/22 12:33:46;;;;;;;;;;;31.50;89.10;;;;;;6326547;22;19948;-82
2023/05/22 12:36:11;;;;;;;1999.90;999.90;;;31.30;84.70;;;;;;6219920;22;20378;-82
2023/05/22 12:38:39;;;;;;;1999.90;999.90;;;31.00;84.60;;;;;;6193207;23;20356;-82
2023/05/22 12:41:05;;;;;;;1999.90;999.90;;;30.90;82.70;;;;;;6194297;22;20531;-81
2023/05/22 12:43:31;;;;;;;1999.90;999.90;;;30.70;88.50;;;;;;6194129;23;20017;-81
2023/05/22 12:45:57;;;;;;;1999.90;999.90;;;30.90;88.50;;;;;;6218800;23;20063;-83
2023/05/22 12:48:22;;;;;;;1999.90;999.90;;;31.00;88.30;;;;;;6191025;23;20009;-83
2023/05/22 12:50:48;;;;;;;1999.90;999.90;;;30.60;85.70;;;;;;6218004;23;20015;-84
2023/05/22 12:53:14;;;;;;;1999.90;999.90;;;30.90;86.40;;;;;;6191384;22;20005;-83
2023/05/22 12:55:40;;;;;;;1999.90;999.90;;;30.90;83.20;;;;;;6218796;23;20058;-82
2023/05/22 12:58:06;;;;;;;1999.90;999.90;;;31.20;81.20;;;;;;6217414;23;20107;-84
2023/05/22 13:00:31;;;;;;;1999.90;999.90;;;31.40;83.80;;;;;;6191856;23;20013;-82
2023/05/22 13:03:01;;;;;;;1999.90;999.90;;;31.70;87.20;;;;;;6193267;22;20015;-81
2023/05/22 13:05:27;;;;;;;1999.90;999.90;;;31.80;82.70;;;;;;6220330;23;20001;-82
2023/05/22 13:07:52;;;;;;;1999.90;999.90;;;31.80;81.00;;;;;;6192452;23;20017;-83
2023/05/22 13:10:18;;;;;;;1999.90;999.90;;;31.70;81.50;;;;;;6192137;23;20008;-79
2023/05/22 13:12:47;;;;;;;1999.90;999.90;;;32.10;79.60;;;;;;6221480;22;20005;-79
2023/05/22 13:15:14;;;;;;;1999.90;999.90;;;32.20;80.60;;;;;;6193692;22;20013;-82
2023/05/22 13:17:39;;;;;;;1999.90;999.90;;;32.90;74.50;;;;;;6191349;23;20013;-80
2023/05/22 13:20:06;;;;;;;1999.90;999.90;;;33.00;73.50;;;;;;6193580;23;20013;-78
2023/05/22 13:22:31;;;;;;;1999.90;999.90;;;32.90;73.40;;;;;;6193158;22;20035;-80
2023/05/22 13:24:57;;;;;;;1999.90;999.90;;;32.60;72.70;;;;;;6193822;23;20378;-82
2023/05/22 13:27:22;;;;;;;1999.90;999.90;;;32.70;71.30;;;;;;6220764;23;20028;-80
2023/05/22 13:29:48;;;;;;;1999.90;999.90;;;33.20;72.80;;;;;;6192355;23;20005;-79
2023/05/22 13:32:14;;;;;;;1999.90;999.90;;;33.30;69.00;;;;;;6218794;22;20367;-79
2023/05/22 13:34:40;;;;;;;1999.90;999.90;;;33.80;70.70;;;;;;6192671;23;20332;-78
2023/05/22 13:37:06;;;;;;;1999.90;999.90;;;34.30;71.30;;;;;;6218021;23;20009;-80
2023/05/22 13:39:32;;;;;;;1999.90;999.90;;;34.20;69.00;;;;;;6192473;23;20054;-83
2023/05/22 13:41:58;;;;;;;1999.90;999.90;;;34.40;69.70;;;;;;6189754;22;20440;-77
2023/05/22 13:44:24;;;;;;;1999.90;999.90;;;34.10;65.20;;;;;;6216285;23;20012;-76
2023/05/22 13:46:50;;;;;;;1999.90;999.90;;;34.40;63.60;;;;;;6216126;23;20013;-77
2023/05/22 13:49:15;;;;;;;1999.90;999.90;;;34.70;60.10;;;;;;6190856;23;20008;-76
2023/05/22 13:51:41;;;;;;;1999.90;999.90;;;35.00;63.70;;;;;;6217530;22;20005;-77
2023/05/22 13:54:06;;;;;;;1999.90;999.90;;;35.00;62.20;;;;;;6218231;23;20005;-77
2023/05/22 13:56:32;;;;;;;1999.90;999.90;;;35.00;61.00;;;;;;6218018;23;20013;-77
2023/05/22 13:58:57;;;;;;;1999.90;999.90;;;34.50;65.00;;;;;;6217992;23;20002;-77
2023/05/22 14:01:23;;;;;;;1999.90;999.90;;;35.10;70.30;;;;;;6190600;22;20013;-77
2023/05/22 14:03:49;;;;;;;1999.90;999.90;;;35.80;59.90;;;;;;6217809;23;20066;-77
2023/05/22 14:06:14;;;;;;;1999.90;999.90;;;35.40;65.00;;;;;;6218869;23;20348;-75
2023/05/22 14:08:40;;;;;;;1999.90;999.90;;;35.60;60.70;;;;;;6190852;23;20445;-75
2023/05/22 14:11:06;;;;;;;1999.90;999.90;;;36.20;58.90;;;;;;6217318;22;20009;-76
2023/05/22 14:13:31;;;;;;;1999.90;999.90;;;36.10;60.70;;;;;;6217758;23;20005;-74
2023/05/22 14:15:57;;;;;;;1999.90;999.90;;;35.80;66.80;;;;;;6217890;23;20456;-76
2023/05/22 14:18:22;;;;;;;1999.90;999.90;;;35.70;58.60;;;;;;6217759;23;20344;-75
2023/05/22 14:20:48;;;;;;;1999.90;999.90;;;35.50;57.00;;;;;;6217599;23;20516;-76
2023/05/22 14:23:14;;;;;;;1999.90;999.90;;;35.30;60.40;;;;;;6217508;22;20074;-78
2023/05/22 14:25:43;;;;;;;1999.90;999.90;;;34.10;58.80;;;;;;6192290;23;20092;-78
2023/05/22 14:28:10;;;;;;;1999.90;999.90;;;33.30;60.60;;;;;;6220623;23;20027;-78
2023/05/22 14:30:35;;;;;;;1999.90;999.90;;;33.60;60.00;;;;;;6191581;23;20013;-79
2023/05/22 14:33:01;;;;;;;1999.90;999.90;;;33.50;60.80;;;;;;6218088;22;20001;-84
2023/05/22 14:35:27;;;;;;;1999.90;999.90;;;33.70;61.10;;;;;;6194463;23;20017;-80
2023/05/22 14:37:52;;;;;;;1999.90;999.90;;;32.80;64.10;;;;;;6193936;23;20023;-83
2023/05/22 14:40:18;;;;;;;1999.90;999.90;;;33.20;62.30;;;;;;6192212;23;20092;-79
2023/05/22 14:42:44;;;;;;;1999.90;999.90;;;34.10;62.40;;;;;;6191403;22;20005;-86
2023/05/22 14:45:10;;;;;;;1999.90;999.90;;;33.50;64.40;;;;;;6191007;23;20009;-77
2023/05/22 14:47:35;;;;;;;1999.90;999.90;;;32.90;60.30;;;;;;6217575;23;20009;-75
2023/05/22 14:50:01;;;;;;;1999.90;999.90;;;33.50;63.50;;;;;;6217827;23;20071;-75
2023/05/22 14:52:26;;;;;;;1999.90;999.90;;;34.10;64.10;;;;;;6217086;22;20016;-75
2023/05/22 14:54:52;;;;;;;1999.90;999.90;;;34.60;59.20;;;;;;6217573;23;20159;-75
2023/05/22 14:57:17;;;;;;;1999.90;999.90;;;35.50;62.60;;;;;;6217490;23;20020;-75
2023/05/22 14:59:43;;;;;;;1999.90;999.90;;;35.90;57.50;;;;;;6217176;23;20005;-76
2023/05/22 15:02:09;;;;;;;1999.90;999.90;;;35.90;60.80;;;;;;6217132;22;20014;-75
2023/05/22 15:04:34;;;;;;;1999.90;999.90;;;35.70;60.90;;;;;;6217791;23;20358;-74
2023/05/22 15:07:00;;;;;;;1999.90;999.90;;;35.50;63.80;;;;;;6217691;23;20408;-74
2023/05/22 15:09:26;;;;;;;1999.90;999.90;;;36.10;59.40;;;;;;6190322;23;20013;-74
2023/05/22 15:11:51;;;;;;;1999.90;999.90;;;36.90;61.20;;;;;;6216534;22;20327;-74
2023/05/22 15:14:17;;;;;;;1999.90;999.90;;;37.00;59.90;;;;;;6217052;23;20095;-74
2023/05/22 15:16:42;;;;;;;1999.90;999.90;;;37.00;55.80;;;;;;6217184;23;20012;-74
2023/05/22 15:19:08;;;;;;;1999.90;999.90;;;36.70;57.20;;;;;;6190566;23;20013;-74
2023/05/22 15:21:35;;;;;;;1999.90;999.90;;;35.70;55.50;;;;;;6189937;22;20463;-74
2023/05/22 15:24:00;;;;;;;1999.90;999.90;;;35.30;56.70;;;;;;6189821;23;20024;-74
2023/05/22 15:26:26;;;;;;;1999.90;999.90;;;34.50;63.80;;;;;;6217456;23;20353;-76
2023/05/22 15:28:51;;;;;;;1999.90;999.90;;;34.30;57.80;;;;;;6190496;23;20005;-75
2023/05/22 15:31:17;;;;;;;1999.90;999.90;;;34.60;59.60;;;;;;6190317;22;20447;-75
2023/05/22 15:36:18;;;;;;;1999.90;999.90;;;33.90;59.30;;;;;;6346283;22;20023;-76
2023/05/22 15:38:44;;;;;;;1999.90;999.90;;;34.20;60.50;;;;;;6344835;22;20016;-77
2023/05/22 15:41:09;;;;;;;1999.90;999.90;;;35.30;60.50;;;;;;6344420;22;20022;-77
2023/05/22 15:43:35;;;;;;;1999.90;999.90;;;36.40;55.20;;;;;;6344654;22;20007;-75
2023/05/22 15:46:00;;;;;;;1999.90;999.90;;;38.20;55.90;;;;;;6345691;22;20341;-77
2023/05/22 15:48:27;;;;;;;1999.90;999.90;;;38.20;55.80;;;;;;6345792;22;20453;-77
2023/05/22 15:50:52;;;;;;;1999.90;999.90;;;38.70;52.10;;;;;;6346330;22;20003;-77
2023/05/22 15:53:18;;;;;;;1999.90;999.90;;;38.60;53.80;;;;;;6345458;22;20401;-78
2023/05/22 15:55:44;;;;;;;1999.90;999.90;;;38.80;50.80;;;;;;6346482;22;20071;-78
2023/05/22 15:58:09;;;;;;;1999.90;999.90;;;38.80;51.90;;;;;;6344980;22;19999;-77
2023/05/22 16:00:39;;;;;;;1999.90;999.90;;;38.60;52.90;;;;;;6345098;22;20495;-79
2023/05/22 16:03:10;;;;;;;1999.90;999.90;;;38.70;56.40;;;;;;6346202;22;20015;-78
2023/05/22 16:05:39;;;;;;;1999.90;999.90;;;38.80;51.90;;;;;;6344797;22;20003;-80
2023/05/22 16:08:11;;;;;;;1999.90;999.90;;;39.40;51.50;;;;;;6346949;22;20007;-80
2023/05/22 16:10:40;;;;;;;1999.90;999.90;;;39.60;50.00;;;;;;6351866;22;20003;-81
2023/05/22 16:13:06;;;;;;;1999.90;999.90;;;39.50;50.70;;;;;;6348642;22;20046;-77
2023/05/22 16:15:32;;;;;;;1999.90;999.90;;;39.00;51.70;;;;;;6346540;22;20038;-75
2023/05/22 16:17:58;;;;;;;1999.90;999.90;;;37.90;50.10;;;;;;6346541;22;20435;-76
2023/05/22 16:20:24;;;;;;;1999.90;999.90;;;37.30;53.80;;;;;;6347139;22;20410;-76
2023/05/22 16:22:50;;;;;;;1999.90;999.90;;;36.20;53.40;;;;;;6344327;22;20086;-76
2023/05/22 16:25:16;;;;;;;1999.90;999.90;;;34.00;56.10;;;;;;6345137;22;20078;-75
2023/05/22 16:27:42;;;;;;;1999.90;999.90;;;32.80;58.30;;;;;;6343273;22;20014;-77
2023/05/22 16:30:09;;;;;;;1999.90;999.90;;;31.90;63.00;;;;;;6346798;22;20011;-76
2023/05/22 16:32:35;;;;;;;1999.90;999.90;;;31.40;63.40;;;;;;6371310;22;20153;-77
2023/05/22 16:35:01;;;;;;;1999.90;999.90;;;31.20;63.60;;;;;;6360707;22;20052;-75
2023/05/22 16:37:27;;;;;;;1999.90;999.90;;;31.20;62.80;;;;;;6378395;22;20019;-77
2023/05/22 16:39:52;;;;;;;1999.90;999.90;;;31.20;65.20;;;;;;6351687;22;20003;-77
2023/05/22 16:42:18;;;;;;;1999.90;999.90;;;31.10;65.20;;;;;;6349209;22;20015;-76
2023/05/22 16:44:44;;;;;;;1999.90;999.90;;;30.60;66.80;;;;;;6377005;22;20002;-79
2023/05/22 16:47:10;;;;;;;1999.90;999.90;;;30.40;68.00;;;;;;6378007;22;20686;-76
2023/05/22 16:49:37;;;;;;;1999.90;999.90;;;30.00;68.80;;;;;;6349251;22;20026;-75
2023/05/22 16:52:03;;;;;;;1999.90;999.90;;;29.80;69.80;;;;;;6377060;22;20034;-77
2023/05/22 16:54:28;;;;;;;1999.90;999.90;;;29.70;69.70;;;;;;6376973;22;20045;-77
2023/05/22 16:56:54;;;;;;;1999.90;999.90;;;29.80;69.20;;;;;;6376931;22;20445;-74
2023/05/22 16:59:20;;;;;;;1999.90;999.90;;;29.70;68.90;;;;;;6377225;22;20003;-79
2023/05/22 17:01:46;;;;;;;1999.90;999.90;;;29.60;69.80;;;;;;6349254;22;20010;-77
2023/05/22 17:04:14;;;;;;;1999.90;999.90;;;29.20;68.90;;;;;;6376823;22;20465;-77
2023/05/22 17:06:42;;;;;;;1999.90;999.90;;;29.00;72.80;;;;;;6377340;22;19998;-80
2023/05/22 17:09:09;;;;;;;1999.90;999.90;;;28.60;73.20;;;;;;6378688;22;20038;-74
2023/05/22 17:11:35;;;;;;;1999.90;999.90;;;28.40;71.60;;;;;;6348562;22;20018;-77
2023/05/22 17:14:01;;;;;;;1999.90;999.90;;;28.00;72.40;;;;;;6378375;22;20005;-75
2023/05/22 17:16:26;;;;;;;1999.90;999.90;;;27.70;74.90;;;;;;6377356;22;20050;-76
2023/05/22 17:18:52;;;;;;;1999.90;999.90;;;27.50;75.10;;;;;;6376993;22;20052;-77
2023/05/22 17:21:18;;;;;;;1999.90;999.90;;;27.10;74.10;;;;;;6376491;22;20524;-77
2023/05/22 17:23:44;;;;;;;1999.90;999.90;;;27.00;75.50;;;;;;6377788;22;20033;-78
2023/05/22 17:26:09;;;;;;;1999.90;999.90;;;26.60;76.00;;;;;;6378166;22;20018;-78
2023/05/22 17:28:35;;;;;;;1999.90;999.90;;;26.70;76.10;;;;;;6376383;22;19998;-77
2023/05/22 17:31:00;;;;;;;1999.90;999.90;;;26.60;77.10;;;;;;6376027;22;20011;-77
2023/05/22 17:33:26;;;;;;;1999.90;999.90;;;26.40;77.70;;;;;;6375933;22;20025;-78
2023/05/22 17:35:52;;;;;;;1999.90;999.90;;;26.20;79.40;;;;;;6347739;22;20014;-77
2023/05/22 17:38:17;;;;;;;1999.90;999.90;;;26.20;79.10;;;;;;6377729;22;20543;-77
2023/05/22 17:40:43;;;;;;;1999.90;999.90;;;26.00;79.40;;;;;;6378141;22;20015;-76
2023/05/22 17:43:08;;;;;;;1999.90;999.90;;;25.70;79.90;;;;;;6376631;22;20007;-76
2023/05/22 17:45:34;;;;;;;1999.90;999.90;;;25.50;79.80;;;;;;6377810;22;20080;-76
2023/05/22 17:47:59;;;;;;;1999.90;999.90;;;25.40;80.50;;;;;;6378266;22;20013;-77
2023/05/22 17:50:25;;;;;;;1999.90;999.90;;;25.30;80.70;;;;;;6378106;22;20011;-76
2023/05/22 17:52:51;;;;;;;1999.90;999.90;;;25.10;80.30;;;;;;6349738;22;20037;-76
2023/05/22 17:55:16;;;;;;;1999.90;999.90;;;25.00;82.00;;;;;;6379377;22;20342;-76
2023/05/22 17:57:42;;;;;;;1999.90;999.90;;;24.90;81.90;;;;;;6349791;22;20325;-76
2023/05/22 18:00:09;;;;;;;1999.90;999.90;;;24.70;83.70;;;;;;6377749;22;20011;-76
2023/05/22 18:02:35;;;;;;;1999.90;999.90;;;24.60;83.30;;;;;;6349329;22;20105;-76
2023/05/22 18:05:05;;;;;;;1999.90;999.90;;;24.30;84.90;;;;;;6377598;22;20029;-76
2023/05/22 18:07:31;;;;;;;1999.90;999.90;;;24.10;85.80;;;;;;6377886;22;20094;-76
2023/05/22 18:09:56;;;;;;;1999.90;999.90;;;24.00;88.30;;;;;;6377833;22;20468;-76
2023/05/22 18:12:22;;;;;;;1999.90;999.90;;;23.80;88.70;;;;;;6377561;22;20034;-76
2023/05/22 18:14:47;;;;;;;1999.90;999.90;;;23.70;90.30;;;;;;6377855;22;20010;-76
2023/05/22 18:17:13;;;;;;;1999.90;999.90;;;23.60;91.20;;;;;;6377845;22;20007;-76
2023/05/22 18:19:38;;;;;;;1999.90;999.90;;;23.50;91.50;;;;;;6378065;22;20335;-75
2023/05/22 18:22:04;;;;;;;1999.90;999.90;;;23.30;92.00;;;;;;6377078;22;21947;-76
2023/05/22 18:24:30;;;;;;;1999.90;999.90;;;23.20;92.20;;;;;;6349728;22;20051;-76
2023/05/22 18:26:55;;;;;;;1999.90;999.90;;;23.00;92.70;;;;;;6378149;22;20494;-76
2023/05/22 18:29:21;;;;;;;1999.90;999.90;;;22.90;93.00;;;;;;6378005;22;20052;-78
2023/05/22 18:31:47;;;;;;;1999.90;999.90;;;22.70;93.80;;;;;;6349306;22;20010;-77
2023/05/22 18:34:12;;;;;;;1999.90;999.90;;;22.60;94.00;;;;;;6377136;22;20074;-77
2023/05/22 18:36:40;;;;;;;1999.90;999.90;;;22.60;94.20;;;;;;6350278;22;20045;-77
2023/05/22 18:39:06;;;;;;;1999.90;999.90;;;22.40;94.50;;;;;;6378126;22;20007;-77
2023/05/22 18:41:32;;;;;;;1999.90;999.90;;;22.30;95.20;;;;;;6377649;22;20011;-77
2023/05/22 18:43:58;;;;;;;1999.90;999.90;;;22.20;95.40;;;;;;6377744;22;20026;-78
2023/05/22 18:46:24;;;;;;;1999.90;999.90;;;22.10;95.80;;;;;;6377762;22;20003;-77
2023/05/22 18:48:49;;;;;;;1999.90;999.90;;;22.00;96.10;;;;;;6378170;22;20002;-84
2023/05/22 18:51:15;;;;;;;1999.90;999.90;;;21.90;96.80;;;;;;6378011;22;20002;-76
2023/05/22 18:53:41;;;;;;;1999.90;999.90;;;21.80;97.10;;;;;;6376001;22;20002;-76
2023/05/22 18:56:06;;;;;;;1999.90;999.90;;;21.70;97.50;;;;;;6377649;22;20003;-76
2023/05/22 18:58:32;;;;;;;1999.90;999.90;;;21.60;98.10;;;;;;6378171;22;20010;-78
2023/05/22 19:00:58;;;;;;;1999.90;999.90;;;21.40;98.40;;;;;;6377404;22;20059;-78
2023/05/22 19:03:24;;;;;;;1999.90;999.90;;;21.30;98.80;;;;;;6351135;22;20014;-79
2023/05/22 19:05:49;;;;;;;1999.90;999.90;;;21.20;99.10;;;;;;6377361;22;20007;-79
2023/05/22 19:08:15;;;;;;;1999.90;999.90;;;21.10;99.60;;;;;;6375710;22;20365;-79
2023/05/22 19:10:40;;;;;;;1999.90;999.90;;;21.00;99.90;;;;;;6349382;22;20007;-78
2023/05/22 19:13:06;;;;;;;1999.90;999.90;;;20.90;99.90;;;;;;6350483;22;20010;-79
2023/05/22 19:15:33;;;;;;;1999.90;999.90;;;20.80;99.90;;;;;;6352575;22;20003;-79
2023/05/22 19:18:00;;;;;;;1999.90;999.90;;;20.70;99.90;;;;;;6359080;22;20054;-78
2023/05/22 19:20:25;;;;;;;1999.90;999.90;;;20.80;99.90;;;;;;6384866;22;20010;-79
2023/05/22 19:22:52;;;;;;;1999.90;999.90;;;20.70;99.90;;;;;;6350098;22;20037;-79
2023/05/22 19:25:18;;;;;;;1999.90;999.90;;;20.60;99.90;;;;;;6350054;22;20049;-79
2023/05/22 19:27:44;;;;;;;1999.90;999.90;;;20.50;99.90;;;;;;6376540;22;20042;-79
2023/05/22 19:30:10;;;;;;;1999.90;999.90;;;20.50;99.90;;;;;;6349931;22;20003;-79
2023/05/22 19:32:35;;;;;;;1999.90;999.90;;;20.40;99.90;;;;;;6349854;22;20074;-79
2023/05/22 19:35:01;;;;;;;1999.90;999.90;;;20.40;99.90;;;;;;6377755;22;20007;-79
2023/05/22 19:37:26;;;;;;;1999.90;999.90;;;20.30;99.90;;;;;;6349913;22;20011;-80
2023/05/22 19:39:53;;;;;;;1999.90;999.90;;;20.30;99.90;;;;;;6378027;22;20094;-79
2023/05/22 19:42:18;;;;;;;1999.90;999.90;;;20.20;99.90;;;;;;6377612;22;20068;-79
2023/05/22 19:44:43;;;;;;;1999.90;999.90;;;20.00;99.90;;;;;;6375843;22;19998;-79
2023/05/22 19:47:09;;;;;;;1999.90;999.90;;;20.00;99.90;;;;;;6377371;22;21769;-80
2023/05/22 19:49:35;;;;;;;1999.90;999.90;;;19.90;99.90;;;;;;6349884;22;20003;-80
2023/05/22 19:52:05;;;;;;;1999.90;999.90;;;20.00;99.90;;;;;;6349589;22;20037;-79
2023/05/22 19:54:31;;;;;;;1999.90;999.90;;;19.90;99.90;;;;;;6377626;22;20022;-79
2023/05/22 19:56:56;;;;;;;1999.90;999.90;;;19.70;99.90;;;;;;6378365;22;20022;-79
2023/05/22 19:59:22;;;;;;;1999.90;999.90;;;19.70;99.90;;;;;;6347761;22;21949;-79
2023/05/22 20:01:47;;;;;;;1999.90;999.90;;;19.60;99.90;;;;;;6377492;22;20056;-79
2023/05/22 20:04:13;;;;;;;1999.90;999.90;;;19.70;99.90;;;;;;6349467;22;20009;-78
2023/05/22 20:06:38;;;;;;;1999.90;999.90;;;19.50;99.90;;;;;;6349548;22;20050;-79
2023/05/22 20:09:04;;;;;;;1999.90;999.90;;;19.50;99.90;;;;;;6377805;22;20079;-79
2023/05/22 20:11:30;;;;;;;1999.90;999.90;;;19.40;99.90;;;;;;6377629;22;20487;-78
2023/05/22 20:13:56;;;;;;;1999.90;999.90;;;19.40;99.90;;;;;;6377678;22;20003;-79
2023/05/22 20:16:21;;;;;;;1999.90;999.90;;;19.40;99.90;;;;;;6349673;22;20453;-79
2023/05/22 20:18:51;;;;;;;1999.90;999.90;;;19.30;99.90;;;;;;6376036;22;20053;-79
2023/05/22 20:21:16;;;;;;;1999.90;999.90;;;19.30;99.90;;;;;;6378896;22;20009;-79
2023/05/22 20:23:42;;;;;;;1999.90;999.90;;;19.20;99.90;;;;;;6378109;22;20025;-79
2023/05/22 20:26:07;;;;;;;1999.90;999.90;;;19.20;99.90;;;;;;6379273;22;20037;-79
2023/05/22 20:28:33;;;;;;;1999.90;999.90;;;19.20;99.90;;;;;;6351262;22;20496;-79
2023/05/22 20:30:58;;;;;;;1999.90;999.90;;;19.10;99.90;;;;;;6378670;22;20086;-79
2023/05/22 20:33:26;;;;;;;1999.90;999.90;;;19.10;99.90;;;;;;6351393;22;20003;-79
2023/05/22 20:35:52;;;;;;;1999.90;999.90;;;19.20;99.90;;;;;;6350381;22;20046;-80
2023/05/22 20:38:18;;;;;;;1999.90;999.90;;;19.20;99.90;;;;;;6379612;22;20517;-79
2023/05/22 20:40:47;;;;;;;1999.90;999.90;;;19.20;99.90;;;;;;6350859;22;20076;-79
2023/05/22 20:43:13;;;;;;;1999.90;999.90;;;19.30;99.90;;;;;;6378926;22;20033;-79
2023/05/22 20:45:40;;;;;;;1999.90;999.90;;;19.40;99.90;;;;;;6349374;22;20010;-79
2023/05/22 20:48:05;;;;;;;1999.90;999.90;;;19.30;99.90;;;;;;6349867;22;20048;-78
2023/05/22 20:50:31;;;;;;;1999.90;999.90;;;19.30;99.90;;;;;;6376715;22;20074;-79
2023/05/22 20:52:58;;;;;;;1999.90;999.90;;;19.30;99.90;;;;;;6378296;22;19999;-79
2023/05/22 20:55:24;;;;;;;1999.90;999.90;;;19.20;99.90;;;;;;6378100;22;20039;-78
2023/05/22 20:57:50;;;;;;;1999.90;999.90;;;19.20;99.90;;;;;;6377844;22;20029;-78
2023/05/22 21:00:16;;;;;;;1999.90;999.90;;;19.20;99.90;;;;;;6378792;22;20014;-78
2023/05/22 21:02:42;;;;;;;1999.90;999.90;;;19.20;99.90;;;;;;6378703;22;20073;-78
2023/05/22 21:05:08;;;;;;;1999.90;999.90;;;19.20;99.90;;;;;;6378994;22;20007;-78
2023/05/22 21:07:33;;;;;;;1999.90;999.90;;;19.30;99.90;;;;;;6377530;22;20007;-78
2023/05/22 21:09:59;;;;;;;1999.90;999.90;;;19.30;99.90;;;;;;6351041;22;20042;-78
2023/05/22 21:12:25;;;;;;;1999.90;999.90;;;19.20;99.90;;;;;;6350440;22;20006;-78
2023/05/22 21:14:51;;;;;;;1999.90;999.90;;;19.20;99.90;;;;;;6378467;22;20010;-78
2023/05/22 21:17:16;;;;;;;1999.90;999.90;;;19.10;99.90;;;;;;6351442;22;20015;-78
2023/05/22 21:19:42;;;;;;;1999.90;999.90;;;19.10;99.90;;;;;;6377136;22;20085;-78
2023/05/22 21:22:07;;;;;;;1999.90;999.90;;;19.00;99.90;;;;;;6380583;22;20073;-78
2023/05/22 21:24:33;;;;;;;1999.90;999.90;;;19.00;99.90;;;;;;6381302;22;20501;-78
2023/05/22 21:26:59;;;;;;;1999.90;999.90;;;18.90;99.90;;;;;;6379056;22;20002;-78
2023/05/22 21:29:25;;;;;;;1999.90;999.90;;;18.80;99.90;;;;;;6378094;22;20057;-78
2023/05/22 21:31:50;;;;;;;1999.90;999.90;;;18.70;99.90;;;;;;6349405;22;20007;-78
2023/05/22 21:34:16;;;;;;;1999.90;999.90;;;18.60;99.90;;;;;;6377251;22;20011;-81
2023/05/22 21:36:41;;;;;;;1999.90;999.90;;;18.60;99.90;;;;;;6377066;22;20006;-76
2023/05/22 21:39:07;;;;;;;1999.90;999.90;;;18.60;99.90;;;;;;6375221;22;20010;-77
2023/05/22 21:41:32;;;;;;;1999.90;999.90;;;18.60;99.90;;;;;;6376586;22;20015;-78
2023/05/22 21:43:58;;;;;;;1999.90;999.90;;;18.60;99.90;;;;;;6376926;22;20010;-76
2023/05/22 21:46:23;;;;;;;1999.90;999.90;;;18.60;99.90;;;;;;6377007;22;20007;-76
2023/05/22 21:48:49;;;;;;;1999.90;999.90;;;18.70;99.90;;;;;;6377128;22;20003;-78
2023/05/22 21:51:15;;;;;;;1999.90;999.90;;;18.60;99.90;;;;;;6377187;22;20037;-76